Главная страница
METAR-TAF:

METAR-TAF

Аэропорты :

Гибралтар, Гибралтар

широта: 36-09N, долгота: 005-21W, высота над уровнем моря: 5 м

Текущие метеонаблюдения

Эта сводка был подготовлена 44 минут назад, в 05:50 UTC
Ветер 3 Узел от западный-юго-западный
Температура 16°C
Влажность 82%
Давление 1018 hPa
Видимость 10 км и более
небольшая облачность на высоте 700 фута

METAR: LXGB 170550Z 25003KT 9999 FEW007 16/13 Q1018 RMK BLU

Время: 08:34 (06:34 UTC)

Прогноз

Эта сводка был подготовлена 2 часа и 2 минут назад, в 04:32 UTC
Прогноз действительный с 17-го 06 UTC до 17-го 15 UTC
Ветер 3 Узел переменных направлений
Видимость 10 км и более
небольшая облачность на высоте 1000 фута
Вероятность 40% :
временами
С 17-го 06 UTC до 17-го 09 UTC
Видимость: 6000 м
Отдельные облака на высоте 800 фута
мгла

TAF: LXGB 170432Z 1706/1715 VRB03KT 9999 FEW010 PROB40 TEMPO 1706/1709 6000 HZ SCT008

Метеонаблюдения и прогнозы для более 4000 аэропортов (сводки METAR и TAF).

Имеющиеся станции представлены на карте желтыми и красными точками.

Чтобы увидеть название станции, наведите на нее мышь.

Затем щелкните, чтобы увидеть метеонаблюдения и метеопрогнозы.

Управление картой: чтобы увеличить масштаб, щелкните зеленые кнопки с черным крестиком; чтобы уменьшить масштаб, щелкните зеленую кнопку с тире; для просмотра соседних карт щелкайте зеленые стрелки.


METAR-TAF: